sensor_id;sensor_type;location;lat;lon;timestamp;P1;durP1;ratioP1;P2;durP2;ratioP2
462;SDS011;218;51.902;9.542;2023-02-11T00:01:18;34.65;;;25.52;;
462;SDS011;218;51.902;9.542;2023-02-11T00:03:47;35.42;;;24.50;;
462;SDS011;218;51.902;9.542;2023-02-11T00:06:14;36.50;;;27.08;;
462;SDS011;218;51.902;9.542;2023-02-11T00:08:41;38.00;;;26.88;;
462;SDS011;218;51.902;9.542;2023-02-11T00:11:10;37.88;;;24.55;;
462;SDS011;218;51.902;9.542;2023-02-11T00:13:39;34.58;;;26.27;;
462;SDS011;218;51.902;9.542;2023-02-11T00:16:07;37.80;;;26.10;;
462;SDS011;218;51.902;9.542;2023-02-11T00:18:37;32.63;;;24.75;;
462;SDS011;218;51.902;9.542;2023-02-11T00:21:07;35.40;;;26.77;;
462;SDS011;218;51.902;9.542;2023-02-11T00:23:34;37.97;;;27.25;;
462;SDS011;218;51.902;9.542;2023-02-11T00:26:02;37.03;;;28.13;;
462;SDS011;218;51.902;9.542;2023-02-11T00:28:29;32.40;;;26.65;;
462;SDS011;218;51.902;9.542;2023-02-11T00:30:56;38.70;;;25.95;;
462;SDS011;218;51.902;9.542;2023-02-11T00:33:25;39.38;;;26.50;;
462;SDS011;218;51.902;9.542;2023-02-11T00:35:54;35.50;;;24.75;;
462;SDS011;218;51.902;9.542;2023-02-11T00:38:21;35.05;;;26.30;;
462;SDS011;218;51.902;9.542;2023-02-11T00:40:48;36.75;;;27.15;;
462;SDS011;218;51.902;9.542;2023-02-11T00:43:15;34.80;;;25.73;;
462;SDS011;218;51.902;9.542;2023-02-11T00:45:42;32.35;;;25.30;;
462;SDS011;218;51.902;9.542;2023-02-11T00:48:09;36.85;;;26.30;;
462;SDS011;218;51.902;9.542;2023-02-11T00:50:36;39.55;;;26.27;;
462;SDS011;218;51.902;9.542;2023-02-11T00:53:04;44.65;;;25.38;;
462;SDS011;218;51.902;9.542;2023-02-11T00:55:31;35.25;;;26.10;;
462;SDS011;218;51.902;9.542;2023-02-11T00:57:58;34.83;;;24.75;;
462;SDS011;218;51.902;9.542;2023-02-11T01:00:25;39.53;;;29.10;;
462;SDS011;218;51.902;9.542;2023-02-11T01:02:52;36.22;;;27.30;;
462;SDS011;218;51.902;9.542;2023-02-11T01:05:20;42.20;;;27.98;;
462;SDS011;218;51.902;9.542;2023-02-11T01:07:47;40.53;;;29.17;;
462;SDS011;218;51.902;9.542;2023-02-11T01:10:15;42.45;;;28.63;;
462;SDS011;218;51.902;9.542;2023-02-11T01:12:42;35.55;;;27.67;;
462;SDS011;218;51.902;9.542;2023-02-11T01:15:10;42.25;;;29.50;;
462;SDS011;218;51.902;9.542;2023-02-11T01:17:38;35.78;;;26.92;;
462;SDS011;218;51.902;9.542;2023-02-11T01:20:05;40.85;;;27.23;;
462;SDS011;218;51.902;9.542;2023-02-11T01:22:34;37.47;;;28.08;;
462;SDS011;218;51.902;9.542;2023-02-11T01:25:03;43.03;;;29.88;;
462;SDS011;218;51.902;9.542;2023-02-11T01:27:32;44.00;;;28.83;;
462;SDS011;218;51.902;9.542;2023-02-11T01:30:00;35.78;;;27.25;;
462;SDS011;218;51.902;9.542;2023-02-11T01:32:27;42.05;;;27.83;;
462;SDS011;218;51.902;9.542;2023-02-11T01:34:54;35.85;;;27.80;;
462;SDS011;218;51.902;9.542;2023-02-11T01:37:21;39.15;;;28.13;;
462;SDS011;218;51.902;9.542;2023-02-11T01:39:48;41.25;;;29.45;;
462;SDS011;218;51.902;9.542;2023-02-11T01:42:16;39.22;;;28.90;;
462;SDS011;218;51.902;9.542;2023-02-11T01:44:47;43.30;;;29.67;;
462;SDS011;218;51.902;9.542;2023-02-11T01:47:15;41.75;;;27.70;;
462;SDS011;218;51.902;9.542;2023-02-11T01:49:43;40.55;;;27.60;;
462;SDS011;218;51.902;9.542;2023-02-11T01:52:12;42.70;;;30.45;;
462;SDS011;218;51.902;9.542;2023-02-11T01:54:45;44.58;;;29.55;;
462;SDS011;218;51.902;9.542;2023-02-11T01:57:33;35.28;;;27.70;;
462;SDS011;218;51.902;9.542;2023-02-11T02:00:08;42.55;;;29.20;;
462;SDS011;218;51.902;9.542;2023-02-11T02:02:39;41.50;;;28.83;;
462;SDS011;218;51.902;9.542;2023-02-11T02:05:15;42.28;;;29.77;;
462;SDS011;218;51.902;9.542;2023-02-11T02:07:45;42.75;;;30.98;;
462;SDS011;218;51.902;9.542;2023-02-11T02:10:20;42.72;;;30.00;;
462;SDS011;218;51.902;9.542;2023-02-11T02:12:50;41.08;;;29.45;;
462;SDS011;218;51.902;9.542;2023-02-11T02:15:20;45.47;;;28.83;;
462;SDS011;218;51.902;9.542;2023-02-11T02:17:56;40.67;;;29.20;;
462;SDS011;218;51.902;9.542;2023-02-11T02:23:24;35.10;;;27.92;;
462;SDS011;218;51.902;9.542;2023-02-11T02:26:08;36.60;;;28.02;;
462;SDS011;218;51.902;9.542;2023-02-11T02:28:57;34.42;;;29.10;;
462;SDS011;218;51.902;9.542;2023-02-11T02:31:51;39.10;;;29.58;;
462;SDS011;218;51.902;9.542;2023-02-11T02:34:31;36.70;;;28.42;;
462;SDS011;218;51.902;9.542;2023-02-11T02:37:07;37.72;;;27.40;;
462;SDS011;218;51.902;9.542;2023-02-11T02:39:35;36.42;;;28.73;;
462;SDS011;218;51.902;9.542;2023-02-11T02:42:03;39.30;;;29.23;;
462;SDS011;218;51.902;9.542;2023-02-11T02:44:30;35.58;;;28.13;;
462;SDS011;218;51.902;9.542;2023-02-11T02:46:58;33.63;;;25.67;;
462;SDS011;218;51.902;9.542;2023-02-11T02:49:25;34.80;;;25.25;;
462;SDS011;218;51.902;9.542;2023-02-11T02:52:00;31.38;;;25.20;;
462;SDS011;218;51.902;9.542;2023-02-11T02:57:47;33.05;;;24.33;;
462;SDS011;218;51.902;9.542;2023-02-11T03:00:21;31.23;;;25.25;;
462;SDS011;218;51.902;9.542;2023-02-11T03:02:59;32.47;;;25.25;;
462;SDS011;218;51.902;9.542;2023-02-11T03:05:39;33.65;;;26.23;;
462;SDS011;218;51.902;9.542;2023-02-11T03:08:13;38.50;;;25.48;;
462;SDS011;218;51.902;9.542;2023-02-11T03:10:42;34.05;;;23.23;;
462;SDS011;218;51.902;9.542;2023-02-11T03:13:11;28.73;;;23.13;;
462;SDS011;218;51.902;9.542;2023-02-11T03:15:41;29.33;;;23.42;;
462;SDS011;218;51.902;9.542;2023-02-11T03:18:11;30.17;;;23.58;;
462;SDS011;218;51.902;9.542;2023-02-11T03:20:42;28.52;;;22.63;;
462;SDS011;218;51.902;9.542;2023-02-11T03:23:14;29.23;;;23.00;;
462;SDS011;218;51.902;9.542;2023-02-11T03:25:43;27.10;;;22.10;;
462;SDS011;218;51.902;9.542;2023-02-11T03:28:13;26.45;;;23.40;;
462;SDS011;218;51.902;9.542;2023-02-11T03:30:45;27.75;;;22.48;;
462;SDS011;218;51.902;9.542;2023-02-11T03:33:19;32.17;;;23.67;;
462;SDS011;218;51.902;9.542;2023-02-11T03:35:49;27.27;;;23.92;;
462;SDS011;218;51.902;9.542;2023-02-11T03:38:19;31.98;;;23.60;;
462;SDS011;218;51.902;9.542;2023-02-11T03:40:48;31.00;;;24.23;;
462;SDS011;218;51.902;9.542;2023-02-11T03:43:16;29.60;;;24.92;;
462;SDS011;218;51.902;9.542;2023-02-11T03:45:47;29.38;;;21.85;;
462;SDS011;218;51.902;9.542;2023-02-11T03:48:17;32.90;;;24.95;;
462;SDS011;218;51.902;9.542;2023-02-11T03:50:45;31.02;;;24.17;;
462;SDS011;218;51.902;9.542;2023-02-11T03:53:14;33.25;;;24.27;;
462;SDS011;218;51.902;9.542;2023-02-11T03:55:44;30.20;;;23.42;;
462;SDS011;218;51.902;9.542;2023-02-11T03:58:12;32.08;;;25.15;;
462;SDS011;218;51.902;9.542;2023-02-11T04:00:39;28.80;;;24.00;;
462;SDS011;218;51.902;9.542;2023-02-11T04:03:07;30.00;;;23.15;;
462;SDS011;218;51.902;9.542;2023-02-11T04:05:35;33.83;;;24.10;;
462;SDS011;218;51.902;9.542;2023-02-11T04:08:02;27.23;;;23.60;;
462;SDS011;218;51.902;9.542;2023-02-11T04:10:29;28.48;;;22.42;;
462;SDS011;218;51.902;9.542;2023-02-11T04:12:58;26.55;;;22.38;;
462;SDS011;218;51.902;9.542;2023-02-11T04:15:25;31.45;;;23.92;;
462;SDS011;218;51.902;9.542;2023-02-11T04:17:52;29.73;;;23.88;;
462;SDS011;218;51.902;9.542;2023-02-11T04:20:19;26.00;;;22.00;;
462;SDS011;218;51.902;9.542;2023-02-11T04:22:46;27.85;;;24.17;;
462;SDS011;218;51.902;9.542;2023-02-11T04:25:13;25.20;;;21.42;;
462;SDS011;218;51.902;9.542;2023-02-11T04:27:40;24.55;;;20.90;;
462;SDS011;218;51.902;9.542;2023-02-11T04:30:09;26.48;;;21.67;;
462;SDS011;218;51.902;9.542;2023-02-11T04:32:37;27.15;;;21.70;;
462;SDS011;218;51.902;9.542;2023-02-11T04:35:04;27.63;;;22.95;;
462;SDS011;218;51.902;9.542;2023-02-11T04:37:32;25.80;;;21.55;;
462;SDS011;218;51.902;9.542;2023-02-11T04:39:59;29.23;;;22.30;;
462;SDS011;218;51.902;9.542;2023-02-11T04:42:26;28.35;;;23.15;;
462;SDS011;218;51.902;9.542;2023-02-11T04:44:54;28.63;;;22.13;;
462;SDS011;218;51.902;9.542;2023-02-11T04:47:22;28.35;;;23.05;;
462;SDS011;218;51.902;9.542;2023-02-11T04:49:49;28.38;;;22.38;;
462;SDS011;218;51.902;9.542;2023-02-11T04:52:16;26.75;;;21.70;;
462;SDS011;218;51.902;9.542;2023-02-11T04:54:44;27.52;;;22.80;;
462;SDS011;218;51.902;9.542;2023-02-11T04:57:11;26.58;;;21.55;;
462;SDS011;218;51.902;9.542;2023-02-11T04:59:38;27.65;;;23.05;;
462;SDS011;218;51.902;9.542;2023-02-11T05:02:05;28.08;;;23.48;;
462;SDS011;218;51.902;9.542;2023-02-11T05:04:34;26.40;;;23.38;;
462;SDS011;218;51.902;9.542;2023-02-11T05:07:01;28.08;;;22.88;;
462;SDS011;218;51.902;9.542;2023-02-11T05:09:28;30.50;;;22.80;;
462;SDS011;218;51.902;9.542;2023-02-11T05:11:55;31.52;;;25.83;;
462;SDS011;218;51.902;9.542;2023-02-11T05:14:22;29.50;;;24.50;;
462;SDS011;218;51.902;9.542;2023-02-11T05:16:50;31.92;;;26.20;;
462;SDS011;218;51.902;9.542;2023-02-11T05:19:17;29.35;;;22.38;;
462;SDS011;218;51.902;9.542;2023-02-11T05:21:45;29.30;;;24.17;;
462;SDS011;218;51.902;9.542;2023-02-11T05:24:12;29.83;;;24.27;;
462;SDS011;218;51.902;9.542;2023-02-11T05:26:40;30.70;;;24.38;;
462;SDS011;218;51.902;9.542;2023-02-11T05:29:07;30.35;;;25.08;;
462;SDS011;218;51.902;9.542;2023-02-11T05:31:34;32.33;;;24.85;;
462;SDS011;218;51.902;9.542;2023-02-11T05:34:01;30.40;;;24.30;;
462;SDS011;218;51.902;9.542;2023-02-11T05:36:28;32.22;;;24.77;;
462;SDS011;218;51.902;9.542;2023-02-11T05:38:57;31.90;;;26.35;;
462;SDS011;218;51.902;9.542;2023-02-11T05:41:24;40.75;;;26.73;;
462;SDS011;218;51.902;9.542;2023-02-11T05:43:51;34.97;;;27.42;;
462;SDS011;218;51.902;9.542;2023-02-11T05:46:18;31.45;;;25.52;;
462;SDS011;218;51.902;9.542;2023-02-11T05:48:46;33.58;;;27.38;;
462;SDS011;218;51.902;9.542;2023-02-11T05:51:13;31.35;;;25.02;;
462;SDS011;218;51.902;9.542;2023-02-11T05:53:40;36.33;;;28.70;;
462;SDS011;218;51.902;9.542;2023-02-11T05:56:08;39.75;;;27.50;;
462;SDS011;218;51.902;9.542;2023-02-11T05:58:36;38.85;;;27.15;;
462;SDS011;218;51.902;9.542;2023-02-11T06:01:03;34.95;;;25.42;;
462;SDS011;218;51.902;9.542;2023-02-11T06:03:31;39.58;;;29.65;;
462;SDS011;218;51.902;9.542;2023-02-11T06:05:58;37.58;;;30.50;;
462;SDS011;218;51.902;9.542;2023-02-11T06:08:25;39.72;;;30.67;;
462;SDS011;218;51.902;9.542;2023-02-11T06:10:52;42.95;;;32.20;;
462;SDS011;218;51.902;9.542;2023-02-11T06:13:21;44.95;;;30.67;;
462;SDS011;218;51.902;9.542;2023-02-11T06:15:54;43.63;;;32.25;;
462;SDS011;218;51.902;9.542;2023-02-11T06:18:21;44.42;;;33.30;;
462;SDS011;218;51.902;9.542;2023-02-11T06:20:48;55.13;;;39.33;;
462;SDS011;218;51.902;9.542;2023-02-11T06:23:15;48.55;;;35.42;;
462;SDS011;218;51.902;9.542;2023-02-11T06:25:42;44.63;;;33.10;;
462;SDS011;218;51.902;9.542;2023-02-11T06:28:09;45.83;;;33.38;;
462;SDS011;218;51.902;9.542;2023-02-11T06:30:38;45.55;;;32.55;;
462;SDS011;218;51.902;9.542;2023-02-11T06:33:05;50.35;;;34.90;;
462;SDS011;218;51.902;9.542;2023-02-11T06:35:32;50.75;;;37.47;;
462;SDS011;218;51.902;9.542;2023-02-11T06:38:00;50.97;;;35.50;;
462;SDS011;218;51.902;9.542;2023-02-11T06:40:27;42.15;;;33.33;;
462;SDS011;218;51.902;9.542;2023-02-11T06:42:55;47.97;;;32.83;;
462;SDS011;218;51.902;9.542;2023-02-11T06:45:22;46.95;;;31.15;;
462;SDS011;218;51.902;9.542;2023-02-11T06:47:51;50.78;;;34.83;;
462;SDS011;218;51.902;9.542;2023-02-11T06:50:18;45.75;;;32.92;;
462;SDS011;218;51.902;9.542;2023-02-11T06:52:46;43.88;;;31.77;;
462;SDS011;218;51.902;9.542;2023-02-11T06:55:13;44.85;;;32.70;;
462;SDS011;218;51.902;9.542;2023-02-11T06:57:41;50.25;;;34.45;;
462;SDS011;218;51.902;9.542;2023-02-11T07:00:09;52.10;;;33.00;;
462;SDS011;218;51.902;9.542;2023-02-11T07:02:36;39.92;;;30.80;;
462;SDS011;218;51.902;9.542;2023-02-11T07:05:05;43.50;;;31.90;;
462;SDS011;218;51.902;9.542;2023-02-11T07:07:33;46.90;;;34.33;;
462;SDS011;218;51.902;9.542;2023-02-11T07:10:00;41.92;;;32.83;;
462;SDS011;218;51.902;9.542;2023-02-11T07:12:30;45.58;;;32.78;;
462;SDS011;218;51.902;9.542;2023-02-11T07:14:57;46.25;;;32.92;;
462;SDS011;218;51.902;9.542;2023-02-11T07:17:24;49.78;;;33.38;;
462;SDS011;218;51.902;9.542;2023-02-11T07:19:51;48.30;;;31.85;;
462;SDS011;218;51.902;9.542;2023-02-11T07:22:20;47.00;;;33.85;;
462;SDS011;218;51.902;9.542;2023-02-11T07:24:47;44.20;;;34.35;;
462;SDS011;218;51.902;9.542;2023-02-11T07:27:14;47.50;;;33.08;;
462;SDS011;218;51.902;9.542;2023-02-11T07:29:41;45.55;;;33.42;;
462;SDS011;218;51.902;9.542;2023-02-11T07:32:10;46.53;;;32.75;;
462;SDS011;218;51.902;9.542;2023-02-11T07:34:37;44.10;;;32.63;;
462;SDS011;218;51.902;9.542;2023-02-11T07:37:07;56.20;;;35.15;;
462;SDS011;218;51.902;9.542;2023-02-11T07:39:36;51.95;;;31.90;;
462;SDS011;218;51.902;9.542;2023-02-11T07:42:03;44.30;;;30.83;;
462;SDS011;218;51.902;9.542;2023-02-11T07:44:31;48.35;;;32.63;;
462;SDS011;218;51.902;9.542;2023-02-11T07:46:59;53.38;;;34.15;;
462;SDS011;218;51.902;9.542;2023-02-11T07:49:26;48.45;;;33.58;;
462;SDS011;218;51.902;9.542;2023-02-11T07:51:53;49.72;;;32.92;;
462;SDS011;218;51.902;9.542;2023-02-11T07:54:20;43.15;;;30.17;;
462;SDS011;218;51.902;9.542;2023-02-11T07:56:52;50.75;;;32.67;;
462;SDS011;218;51.902;9.542;2023-02-11T07:59:19;48.97;;;32.05;;
462;SDS011;218;51.902;9.542;2023-02-11T08:01:46;44.05;;;32.35;;
462;SDS011;218;51.902;9.542;2023-02-11T08:04:15;46.75;;;32.70;;
462;SDS011;218;51.902;9.542;2023-02-11T08:06:43;46.75;;;32.60;;
462;SDS011;218;51.902;9.542;2023-02-11T08:09:12;55.88;;;36.33;;
462;SDS011;218;51.902;9.542;2023-02-11T08:11:40;42.10;;;31.77;;
462;SDS011;218;51.902;9.542;2023-02-11T08:14:09;45.05;;;33.65;;
462;SDS011;218;51.902;9.542;2023-02-11T08:16:36;47.88;;;32.17;;
462;SDS011;218;51.902;9.542;2023-02-11T08:19:05;45.95;;;30.98;;
462;SDS011;218;51.902;9.542;2023-02-11T08:21:33;47.45;;;32.17;;
462;SDS011;218;51.902;9.542;2023-02-11T08:24:02;46.75;;;33.05;;
462;SDS011;218;51.902;9.542;2023-02-11T08:26:30;45.63;;;32.80;;
462;SDS011;218;51.902;9.542;2023-02-11T08:28:59;45.58;;;32.88;;
462;SDS011;218;51.902;9.542;2023-02-11T08:31:30;48.08;;;33.28;;
462;SDS011;218;51.902;9.542;2023-02-11T08:33:59;46.20;;;31.48;;
462;SDS011;218;51.902;9.542;2023-02-11T08:36:27;46.17;;;32.58;;
462;SDS011;218;51.902;9.542;2023-02-11T08:38:55;49.10;;;34.88;;
462;SDS011;218;51.902;9.542;2023-02-11T08:41:23;49.72;;;33.92;;
462;SDS011;218;51.902;9.542;2023-02-11T08:43:50;49.35;;;34.97;;
462;SDS011;218;51.902;9.542;2023-02-11T08:46:18;45.85;;;33.00;;
462;SDS011;218;51.902;9.542;2023-02-11T08:48:47;53.53;;;35.53;;
462;SDS011;218;51.902;9.542;2023-02-11T08:51:14;44.88;;;31.25;;
462;SDS011;218;51.902;9.542;2023-02-11T08:53:42;51.13;;;34.53;;
462;SDS011;218;51.902;9.542;2023-02-11T08:56:09;53.88;;;35.28;;
462;SDS011;218;51.902;9.542;2023-02-11T08:58:37;52.30;;;34.10;;
462;SDS011;218;51.902;9.542;2023-02-11T09:01:07;49.75;;;31.90;;
462;SDS011;218;51.902;9.542;2023-02-11T09:03:36;42.63;;;31.50;;
462;SDS011;218;51.902;9.542;2023-02-11T09:06:05;45.75;;;31.75;;
462;SDS011;218;51.902;9.542;2023-02-11T09:08:33;48.22;;;32.75;;
462;SDS011;218;51.902;9.542;2023-02-11T09:11:01;49.38;;;31.60;;
462;SDS011;218;51.902;9.542;2023-02-11T09:13:28;42.35;;;30.92;;
462;SDS011;218;51.902;9.542;2023-02-11T09:15:55;47.20;;;32.22;;
462;SDS011;218;51.902;9.542;2023-02-11T09:18:23;42.95;;;29.98;;
462;SDS011;218;51.902;9.542;2023-02-11T09:20:50;55.90;;;33.00;;
462;SDS011;218;51.902;9.542;2023-02-11T09:23:18;43.30;;;30.80;;
462;SDS011;218;51.902;9.542;2023-02-11T09:25:45;47.88;;;30.73;;
462;SDS011;218;51.902;9.542;2023-02-11T09:28:12;48.30;;;32.22;;
462;SDS011;218;51.902;9.542;2023-02-11T09:30:39;52.50;;;33.60;;
462;SDS011;218;51.902;9.542;2023-02-11T09:33:06;44.08;;;30.98;;
462;SDS011;218;51.902;9.542;2023-02-11T09:35:34;50.25;;;32.60;;
462;SDS011;218;51.902;9.542;2023-02-11T09:38:01;45.35;;;32.08;;
462;SDS011;218;51.902;9.542;2023-02-11T09:40:29;45.40;;;30.73;;
462;SDS011;218;51.902;9.542;2023-02-11T09:42:59;45.72;;;30.42;;
462;SDS011;218;51.902;9.542;2023-02-11T09:45:32;53.75;;;32.22;;
462;SDS011;218;51.902;9.542;2023-02-11T09:48:00;53.45;;;32.08;;
462;SDS011;218;51.902;9.542;2023-02-11T09:50:29;47.08;;;31.65;;
462;SDS011;218;51.902;9.542;2023-02-11T09:52:59;46.15;;;30.15;;
462;SDS011;218;51.902;9.542;2023-02-11T09:55:28;42.93;;;30.30;;
462;SDS011;218;51.902;9.542;2023-02-11T09:57:59;44.45;;;30.45;;
462;SDS011;218;51.902;9.542;2023-02-11T10:00:30;45.63;;;29.52;;
462;SDS011;218;51.902;9.542;2023-02-11T10:05:49;45.88;;;29.90;;
462;SDS011;218;51.902;9.542;2023-02-11T10:08:29;46.05;;;29.23;;
462;SDS011;218;51.902;9.542;2023-02-11T10:11:01;43.90;;;28.52;;
462;SDS011;218;51.902;9.542;2023-02-11T10:13:38;42.22;;;29.58;;
462;SDS011;218;51.902;9.542;2023-02-11T10:16:16;40.95;;;30.20;;
462;SDS011;218;51.902;9.542;2023-02-11T10:18:49;40.97;;;28.40;;
462;SDS011;218;51.902;9.542;2023-02-11T10:21:30;50.97;;;32.80;;
462;SDS011;218;51.902;9.542;2023-02-11T10:23:59;42.97;;;29.23;;
462;SDS011;218;51.902;9.542;2023-02-11T10:26:28;54.72;;;32.85;;
462;SDS011;218;51.902;9.542;2023-02-11T10:28:58;50.90;;;31.87;;
462;SDS011;218;51.902;9.542;2023-02-11T10:31:27;51.23;;;32.43;;
462;SDS011;218;51.902;9.542;2023-02-11T10:34:01;44.17;;;31.35;;
462;SDS011;218;51.902;9.542;2023-02-11T10:36:32;45.60;;;29.93;;
462;SDS011;218;51.902;9.542;2023-02-11T10:39:01;44.07;;;30.70;;
462;SDS011;218;51.902;9.542;2023-02-11T10:41:38;47.13;;;35.03;;
462;SDS011;218;51.902;9.542;2023-02-11T10:44:11;43.73;;;31.07;;
462;SDS011;218;51.902;9.542;2023-02-11T10:46:46;46.88;;;32.30;;
462;SDS011;218;51.902;9.542;2023-02-11T10:49:18;47.17;;;31.10;;
462;SDS011;218;51.902;9.542;2023-02-11T10:52:11;47.17;;;32.60;;
462;SDS011;218;51.902;9.542;2023-02-11T10:54:39;50.63;;;32.65;;
462;SDS011;218;51.902;9.542;2023-02-11T10:57:11;49.35;;;32.55;;
462;SDS011;218;51.902;9.542;2023-02-11T10:59:46;46.78;;;29.77;;
462;SDS011;218;51.902;9.542;2023-02-11T11:02:19;45.90;;;32.08;;
462;SDS011;218;51.902;9.542;2023-02-11T11:04:48;46.15;;;28.70;;
462;SDS011;218;51.902;9.542;2023-02-11T11:07:23;44.00;;;30.88;;
462;SDS011;218;51.902;9.542;2023-02-11T11:09:52;44.53;;;30.33;;
462;SDS011;218;51.902;9.542;2023-02-11T11:12:24;44.83;;;30.35;;
462;SDS011;218;51.902;9.542;2023-02-11T11:14:57;45.13;;;28.55;;
462;SDS011;218;51.902;9.542;2023-02-11T11:17:24;45.45;;;28.02;;
462;SDS011;218;51.902;9.542;2023-02-11T11:19:53;44.87;;;28.10;;
462;SDS011;218;51.902;9.542;2023-02-11T11:22:20;36.20;;;27.53;;
462;SDS011;218;51.902;9.542;2023-02-11T11:24:48;42.60;;;28.38;;
462;SDS011;218;51.902;9.542;2023-02-11T11:27:19;44.25;;;30.50;;
462;SDS011;218;51.902;9.542;2023-02-11T11:29:49;44.30;;;29.80;;
462;SDS011;218;51.902;9.542;2023-02-11T11:32:21;40.87;;;28.43;;
462;SDS011;218;51.902;9.542;2023-02-11T11:34:51;36.45;;;25.85;;
462;SDS011;218;51.902;9.542;2023-02-11T11:37:21;39.97;;;26.33;;
462;SDS011;218;51.902;9.542;2023-02-11T11:39:51;37.80;;;25.07;;
462;SDS011;218;51.902;9.542;2023-02-11T11:42:23;42.07;;;26.43;;
462;SDS011;218;51.902;9.542;2023-02-11T11:44:55;41.57;;;28.90;;
462;SDS011;218;51.902;9.542;2023-02-11T11:47:26;39.83;;;27.60;;
462;SDS011;218;51.902;9.542;2023-02-11T11:50:14;43.38;;;27.42;;
462;SDS011;218;51.902;9.542;2023-02-11T11:52:53;38.83;;;26.50;;
462;SDS011;218;51.902;9.542;2023-02-11T11:55:26;34.72;;;25.60;;
462;SDS011;218;51.902;9.542;2023-02-11T11:57:56;36.05;;;24.45;;
462;SDS011;218;51.902;9.542;2023-02-11T12:00:25;37.90;;;25.03;;
462;SDS011;218;51.902;9.542;2023-02-11T12:06:16;32.53;;;25.92;;
462;SDS011;218;51.902;9.542;2023-02-11T12:08:59;39.92;;;28.80;;
462;SDS011;218;51.902;9.542;2023-02-11T12:11:30;42.63;;;28.63;;
462;SDS011;218;51.902;9.542;2023-02-11T12:14:07;39.33;;;27.83;;
462;SDS011;218;51.902;9.542;2023-02-11T12:16:42;41.80;;;28.02;;
462;SDS011;218;51.902;9.542;2023-02-11T12:19:20;40.78;;;26.15;;
462;SDS011;218;51.902;9.542;2023-02-11T12:21:54;38.90;;;25.37;;
462;SDS011;218;51.902;9.542;2023-02-11T12:24:32;41.93;;;26.07;;
462;SDS011;218;51.902;9.542;2023-02-11T12:27:14;39.85;;;27.23;;
462;SDS011;218;51.902;9.542;2023-02-11T12:29:54;37.00;;;25.52;;
462;SDS011;218;51.902;9.542;2023-02-11T12:32:24;35.67;;;24.73;;
462;SDS011;218;51.902;9.542;2023-02-11T12:35:00;35.60;;;25.10;;
462;SDS011;218;51.902;9.542;2023-02-11T12:37:56;32.25;;;24.23;;
462;SDS011;218;51.902;9.542;2023-02-11T12:40:36;33.83;;;23.55;;
462;SDS011;218;51.902;9.542;2023-02-11T12:43:11;31.57;;;23.73;;
462;SDS011;218;51.902;9.542;2023-02-11T12:45:45;32.28;;;22.92;;
462;SDS011;218;51.902;9.542;2023-02-11T12:48:29;31.33;;;23.20;;
462;SDS011;218;51.902;9.542;2023-02-11T12:51:06;33.93;;;23.20;;
462;SDS011;218;51.902;9.542;2023-02-11T12:53:47;29.63;;;23.00;;
462;SDS011;218;51.902;9.542;2023-02-11T12:56:25;27.17;;;20.60;;
462;SDS011;218;51.902;9.542;2023-02-11T12:58:55;33.33;;;23.48;;
462;SDS011;218;51.902;9.542;2023-02-11T13:01:24;33.17;;;20.73;;
462;SDS011;218;51.902;9.542;2023-02-11T13:03:54;33.27;;;23.97;;
462;SDS011;218;51.902;9.542;2023-02-11T13:06:31;28.80;;;21.33;;
462;SDS011;218;51.902;9.542;2023-02-11T13:09:02;35.70;;;22.27;;
462;SDS011;218;51.902;9.542;2023-02-11T13:11:32;35.97;;;22.90;;
462;SDS011;218;51.902;9.542;2023-02-11T13:14:01;36.50;;;23.50;;
462;SDS011;218;51.902;9.542;2023-02-11T13:16:32;26.20;;;21.57;;
462;SDS011;218;51.902;9.542;2023-02-11T13:19:02;29.90;;;22.27;;
462;SDS011;218;51.902;9.542;2023-02-11T13:21:33;31.08;;;22.33;;
462;SDS011;218;51.902;9.542;2023-02-11T13:24:08;31.75;;;23.75;;
462;SDS011;218;51.902;9.542;2023-02-11T13:26:46;32.75;;;22.38;;
462;SDS011;218;51.902;9.542;2023-02-11T13:29:22;29.07;;;22.60;;
462;SDS011;218;51.902;9.542;2023-02-11T13:31:52;31.67;;;23.00;;
462;SDS011;218;51.902;9.542;2023-02-11T13:34:22;35.77;;;22.87;;
462;SDS011;218;51.902;9.542;2023-02-11T13:36:53;30.20;;;22.83;;
462;SDS011;218;51.902;9.542;2023-02-11T13:39:22;37.67;;;24.63;;
462;SDS011;218;51.902;9.542;2023-02-11T13:41:49;28.93;;;23.40;;
462;SDS011;218;51.902;9.542;2023-02-11T13:44:24;32.83;;;23.77;;
462;SDS011;218;51.902;9.542;2023-02-11T13:46:57;33.60;;;22.80;;
462;SDS011;218;51.902;9.542;2023-02-11T13:49:28;29.40;;;22.67;;
462;SDS011;218;51.902;9.542;2023-02-11T13:51:56;35.83;;;24.40;;
462;SDS011;218;51.902;9.542;2023-02-11T13:54:27;33.23;;;23.07;;
462;SDS011;218;51.902;9.542;2023-02-11T13:59:53;38.10;;;23.87;;
462;SDS011;218;51.902;9.542;2023-02-11T14:02:22;33.00;;;24.40;;
462;SDS011;218;51.902;9.542;2023-02-11T14:08:20;38.97;;;26.10;;
462;SDS011;218;51.902;9.542;2023-02-11T14:11:08;38.33;;;25.87;;
462;SDS011;218;51.902;9.542;2023-02-11T14:16:27;36.17;;;25.07;;
462;SDS011;218;51.902;9.542;2023-02-11T14:18:58;38.20;;;25.37;;
462;SDS011;218;51.902;9.542;2023-02-11T14:21:31;36.30;;;24.97;;
462;SDS011;218;51.902;9.542;2023-02-11T14:26:48;38.03;;;27.33;;
462;SDS011;218;51.902;9.542;2023-02-11T14:29:19;35.23;;;26.40;;
462;SDS011;218;51.902;9.542;2023-02-11T14:31:52;34.70;;;25.40;;
462;SDS011;218;51.902;9.542;2023-02-11T14:34:36;40.20;;;24.77;;
462;SDS011;218;51.902;9.542;2023-02-11T14:37:13;35.33;;;25.80;;
462;SDS011;218;51.902;9.542;2023-02-11T14:39:55;39.47;;;25.77;;
462;SDS011;218;51.902;9.542;2023-02-11T14:42:29;36.60;;;26.13;;
462;SDS011;218;51.902;9.542;2023-02-11T14:44:57;40.30;;;27.97;;
462;SDS011;218;51.902;9.542;2023-02-11T14:47:29;37.20;;;25.10;;
462;SDS011;218;51.902;9.542;2023-02-11T14:50:02;42.73;;;25.00;;
462;SDS011;218;51.902;9.542;2023-02-11T14:52:29;36.30;;;26.17;;
462;SDS011;218;51.902;9.542;2023-02-11T14:55:00;34.13;;;27.33;;
462;SDS011;218;51.902;9.542;2023-02-11T14:57:32;35.30;;;25.57;;
462;SDS011;218;51.902;9.542;2023-02-11T15:00:03;35.00;;;23.73;;
462;SDS011;218;51.902;9.542;2023-02-11T15:02:31;41.70;;;23.93;;
462;SDS011;218;51.902;9.542;2023-02-11T15:07:47;34.40;;;26.37;;
462;SDS011;218;51.902;9.542;2023-02-11T15:10:17;40.83;;;25.80;;
462;SDS011;218;51.902;9.542;2023-02-11T15:12:53;37.37;;;27.13;;
462;SDS011;218;51.902;9.542;2023-02-11T15:15:20;34.73;;;25.03;;
462;SDS011;218;51.902;9.542;2023-02-11T15:17:47;30.97;;;24.50;;
462;SDS011;218;51.902;9.542;2023-02-11T15:20:17;36.53;;;25.60;;
462;SDS011;218;51.902;9.542;2023-02-11T15:22:47;36.60;;;25.87;;
462;SDS011;218;51.902;9.542;2023-02-11T15:25:16;34.30;;;24.70;;
462;SDS011;218;51.902;9.542;2023-02-11T15:27:46;35.87;;;26.73;;
462;SDS011;218;51.902;9.542;2023-02-11T15:30:24;32.20;;;24.27;;
462;SDS011;218;51.902;9.542;2023-02-11T15:32:52;33.40;;;23.23;;
462;SDS011;218;51.902;9.542;2023-02-11T15:35:23;43.10;;;28.33;;
462;SDS011;218;51.902;9.542;2023-02-11T15:37:52;34.60;;;25.85;;
462;SDS011;218;51.902;9.542;2023-02-11T15:40:20;36.10;;;26.17;;
462;SDS011;218;51.902;9.542;2023-02-11T15:42:51;37.00;;;25.03;;
462;SDS011;218;51.902;9.542;2023-02-11T15:45:22;34.30;;;24.33;;
462;SDS011;218;51.902;9.542;2023-02-11T15:47:55;36.83;;;25.17;;
462;SDS011;218;51.902;9.542;2023-02-11T15:50:25;37.43;;;25.10;;
462;SDS011;218;51.902;9.542;2023-02-11T15:52:53;33.67;;;24.53;;
462;SDS011;218;51.902;9.542;2023-02-11T15:55:21;36.53;;;24.70;;
462;SDS011;218;51.902;9.542;2023-02-11T15:57:50;34.00;;;26.30;;
462;SDS011;218;51.902;9.542;2023-02-11T16:00:20;33.30;;;25.93;;